KALN

St Louis Regional Airport

Alton/St Louis, Illinois, USA
METAR KALN 231055Z AUTO 26017G24KT 5SM BR OVC011 01/01 A2978 RMK AO2 T00110010
Observed Flight Rules
Jan-23 @ 10:55 UTC (an hour ago) Marginal Visual Flight Rules
Wind Visibility Clouds Conditions
260° at 17 knots
 Gusting to 24 knots
5 miles
  • Overcast at 1,100' AGL
  • Mist
Temperatures Readings
Current 1°C / 34°F
Dewpoint 1°C / 34°F
Humidity 100%
Altimeter 29.78" Hg
Pressure 1008 hPa
Elevation 166
METAR KALN 231055Z AUTO 26017G24KT 5SM BR OVC011 01/01 A2978 RMK AO2 T00110010
Observed Flight Rules
Jan-23 @ 10:55 UTC
(an hour ago)
MVFR
Wind Visibility
260° at 17 knots
 Gusting to 24 knots
5 miles
Clouds
  • Overcast at 1,100' AGL
Conditions
  • Mist
Temperature Dewpoint
1°C / 34°F 1°C / 34°F
Humidity Altimeter Pressure
100% 29.78" Hg 1008 hPa